createdAt,value
2022-10-19T00:00:18.330Z,99534.66
2022-10-19T00:01:24.450Z,99531.03
2022-10-19T00:02:26.258Z,99529.84
2022-10-19T00:03:28.849Z,99440.09
2022-10-19T00:04:30.557Z,99517.78
2022-10-19T00:05:32.228Z,99536.66
2022-10-19T00:06:36.343Z,99533.44
2022-10-19T00:07:38.021Z,99540.34
2022-10-19T00:08:39.673Z,99538.69
2022-10-19T00:09:43.637Z,99513.81
2022-10-19T00:10:45.321Z,99497.84
2022-10-19T00:11:49.695Z,99530.69
2022-10-19T00:12:51.368Z,99519.00
2022-10-19T00:13:54.606Z,99534.53
2022-10-19T00:14:56.977Z,99520.28
2022-10-19T00:15:58.603Z,99531.00
2022-10-19T00:17:00.386Z,99529.53
2022-10-19T00:18:02.156Z,99528.72
2022-10-19T00:19:08.505Z,99535.81
2022-10-19T00:20:11.264Z,99518.53
2022-10-19T00:21:15.689Z,99520.38
2022-10-19T00:22:17.333Z,99506.56
2022-10-19T00:23:18.971Z,99489.22
2022-10-19T00:24:20.849Z,99491.66
2022-10-19T00:25:22.539Z,99512.91
2022-10-19T00:26:24.222Z,99504.38
2022-10-19T00:27:25.913Z,99510.63
2022-10-19T00:28:27.668Z,99501.47
2022-10-19T00:29:29.385Z,99487.03
2022-10-19T00:30:31.085Z,99505.75
2022-10-19T00:31:33.101Z,99509.75
2022-10-19T00:32:35.071Z,99499.38
2022-10-19T00:33:37.100Z,99501.22
2022-10-19T00:34:38.812Z,99501.56
2022-10-19T00:35:41.088Z,99466.53
2022-10-19T00:36:42.833Z,99496.13
2022-10-19T00:37:44.485Z,99500.56
2022-10-19T00:38:46.658Z,99489.41
2022-10-19T00:39:48.452Z,99493.25
2022-10-19T00:40:50.190Z,99490.78
2022-10-19T00:41:51.904Z,99455.22
2022-10-19T00:42:57.212Z,99495.78
2022-10-19T00:44:06.382Z,99487.88
2022-10-19T00:45:15.117Z,99489.69
2022-10-19T00:46:16.915Z,99483.16
2022-10-19T00:47:23.540Z,99463.75
2022-10-19T00:48:31.898Z,99457.56
2022-10-19T00:49:41.601Z,99485.19
2022-10-19T00:50:44.398Z,99482.09
2022-10-19T00:51:50.160Z,99474.34
2022-10-19T00:52:51.857Z,99479.81
2022-10-19T00:53:54.912Z,99458.03
2022-10-19T00:54:58.151Z,99458.84
2022-10-19T00:56:05.473Z,99472.72
2022-10-19T00:57:08.269Z,99461.38
2022-10-19T00:58:10.191Z,99418.88
2022-10-19T00:59:15.174Z,99459.91
2022-10-19T01:00:16.883Z,99460.53
2022-10-19T01:01:22.284Z,99435.22
2022-10-19T01:02:24.106Z,99461.38
2022-10-19T01:03:26.139Z,99424.69
2022-10-19T01:04:29.200Z,99448.38
2022-10-19T01:05:32.591Z,99451.63
2022-10-19T01:06:35.321Z,99447.00
2022-10-19T01:07:37.236Z,99413.72
2022-10-19T01:08:39.270Z,99445.19
2022-10-19T01:09:40.906Z,99445.81
2022-10-19T01:10:53.060Z,99409.91
2022-10-19T01:12:14.164Z,99430.09
2022-10-19T01:13:35.631Z,99445.81
2022-10-19T01:14:55.663Z,99443.19
2022-10-19T01:16:21.422Z,99441.38
2022-10-19T01:17:28.986Z,99435.47
2022-10-19T01:18:45.421Z,99421.59
2022-10-19T01:20:02.151Z,99438.47
2022-10-19T01:21:30.273Z,99419.03
2022-10-19T01:22:31.970Z,99436.19
2022-10-19T01:24:11.541Z,99427.47
2022-10-19T01:25:21.979Z,99433.13
2022-10-19T01:26:47.752Z,99436.75
2022-10-19T01:28:17.646Z,99420.03
2022-10-19T01:29:42.181Z,99431.50
2022-10-19T01:31:12.571Z,99426.94
2022-10-19T01:32:23.619Z,99429.50
2022-10-19T01:33:46.763Z,99430.50
2022-10-19T01:34:55.473Z,99343.13
2022-10-19T01:36:15.119Z,99403.34
2022-10-19T01:37:29.701Z,99429.69
2022-10-19T01:38:50.588Z,99427.41
2022-10-19T01:40:06.531Z,99421.50
2022-10-19T01:41:34.816Z,99419.03
2022-10-19T01:42:46.694Z,99425.94
2022-10-19T01:44:01.660Z,99406.81
2022-10-19T01:45:11.812Z,99417.22
2022-10-19T01:46:25.139Z,99418.88
2022-10-19T01:47:36.064Z,99416.22
2022-10-19T01:48:41.107Z,99419.03
2022-10-19T01:49:49.279Z,99415.34
2022-10-19T01:50:57.910Z,99399.09
2022-10-19T01:52:05.775Z,99376.16
2022-10-19T01:53:10.443Z,99400.03
2022-10-19T01:54:15.549Z,99403.31
2022-10-19T01:55:19.197Z,99407.47
2022-10-19T01:56:25.926Z,99405.38
2022-10-19T01:57:40.776Z,99373.97
2022-10-19T01:58:45.177Z,99413.78
2022-10-19T01:59:49.406Z,99368.09
2022-10-19T02:00:53.676Z,99398.09
2022-10-19T02:01:56.192Z,99408.34
2022-10-19T02:02:59.123Z,99410.16
2022-10-19T02:04:02.510Z,99411.09
2022-10-19T02:05:06.118Z,99415.09
2022-10-19T02:06:10.116Z,99389.22
2022-10-19T02:07:11.890Z,99393.31
2022-10-19T02:08:28.964Z,99381.69
2022-10-19T02:09:30.825Z,99408.47
2022-10-19T02:10:35.445Z,99404.38
2022-10-19T02:11:38.073Z,99368.09
2022-10-19T02:12:41.821Z,99397.94
2022-10-19T02:13:45.168Z,99397.59
2022-10-19T02:14:51.058Z,99380.88
2022-10-19T02:15:56.466Z,99399.47
2022-10-19T02:17:03.448Z,99368.69
2022-10-19T02:18:07.330Z,99384.59
2022-10-19T02:19:11.366Z,99369.00
2022-10-19T02:20:14.045Z,99387.88
2022-10-19T02:21:15.765Z,99384.97
2022-10-19T02:22:17.499Z,99353.19
2022-10-19T02:23:22.223Z,99385.88
2022-10-19T02:24:24.051Z,99371.34
2022-10-19T02:25:26.421Z,99373.59
2022-10-19T02:26:28.355Z,99378.97
2022-10-19T02:27:30.161Z,99358.16
2022-10-19T02:28:32.501Z,99384.66
2022-10-19T02:29:36.882Z,99364.72
2022-10-19T02:30:38.590Z,99362.91
2022-10-19T02:31:40.302Z,99352.91
2022-10-19T02:32:43.514Z,99377.59
2022-10-19T02:33:45.399Z,99374.94
2022-10-19T02:34:47.044Z,99380.03
2022-10-19T02:35:48.972Z,99374.59
2022-10-19T02:36:50.974Z,99356.63
2022-10-19T02:37:52.662Z,99376.84
2022-10-19T02:38:54.490Z,99374.41
2022-10-19T02:39:56.405Z,99370.88
2022-10-19T02:41:07.134Z,99376.22
2022-10-19T02:42:25.105Z,99355.75
2022-10-19T02:43:29.101Z,99347.56
2022-10-19T02:44:47.383Z,99355.19
2022-10-19T02:46:00.400Z,99377.88
2022-10-19T02:47:06.879Z,99373.69
2022-10-19T02:48:13.424Z,99380.59
2022-10-19T02:49:15.904Z,99372.06
2022-10-19T02:50:19.698Z,99372.72
2022-10-19T02:51:48.405Z,99339.41
2022-10-19T02:52:50.291Z,99356.09
2022-10-19T02:53:51.939Z,99372.25
2022-10-19T02:54:53.604Z,99343.66
2022-10-19T02:55:55.248Z,99374.88
2022-10-19T02:56:57.018Z,99365.63
2022-10-19T02:57:58.730Z,99333.34
2022-10-19T02:59:00.888Z,99349.66
2022-10-19T03:00:04.595Z,99366.72
2022-10-19T03:01:06.424Z,99365.09
2022-10-19T03:02:08.129Z,99331.34
2022-10-19T03:03:10.505Z,99359.91
2022-10-19T03:04:12.149Z,99357.09
2022-10-19T03:05:13.900Z,99356.66
2022-10-19T03:06:15.639Z,99333.22
2022-10-19T03:07:19.143Z,99355.41
2022-10-19T03:08:20.828Z,99348.91
2022-10-19T03:09:22.662Z,99355.91
2022-10-19T03:10:24.428Z,99353.19
2022-10-19T03:11:26.212Z,99344.81
2022-10-19T03:12:27.963Z,99337.34
2022-10-19T03:13:29.611Z,99321.19
2022-10-19T03:14:31.235Z,99349.88
2022-10-19T03:15:32.862Z,99356.88
2022-10-19T03:16:34.544Z,99347.97
2022-10-19T03:17:36.422Z,99355.16
2022-10-19T03:18:38.389Z,99311.34
2022-10-19T03:19:40.169Z,99328.13
2022-10-19T03:20:41.846Z,99343.38
2022-10-19T03:21:43.517Z,99352.38
2022-10-19T03:22:45.191Z,99346.72
2022-10-19T03:23:46.869Z,99339.75
2022-10-19T03:24:48.554Z,99344.72
2022-10-19T03:25:50.187Z,99349.63
2022-10-19T03:26:51.874Z,99319.22
2022-10-19T03:27:53.524Z,99347.81
2022-10-19T03:28:55.176Z,99343.09
2022-10-19T03:29:56.877Z,99322.16
2022-10-19T03:30:58.558Z,99337.66
2022-10-19T03:32:00.180Z,99336.66
2022-10-19T03:33:01.813Z,99341.75
2022-10-19T03:34:03.639Z,99318.41
2022-10-19T03:35:05.827Z,99315.34
2022-10-19T03:36:38.863Z,99335.84
2022-10-19T03:37:40.489Z,99342.09
2022-10-19T03:38:42.274Z,99348.56
2022-10-19T03:39:43.942Z,99343.00
2022-10-19T03:40:45.577Z,99300.19
2022-10-19T03:41:47.334Z,99331.78
2022-10-19T03:42:48.972Z,99341.91
2022-10-19T03:43:50.799Z,99332.47
2022-10-19T03:44:52.566Z,99344.28
2022-10-19T03:45:54.204Z,99290.00
2022-10-19T03:46:55.868Z,99336.28
2022-10-19T03:47:57.535Z,99338.09
2022-10-19T03:48:59.605Z,99338.09
2022-10-19T03:50:01.289Z,99322.22
2022-10-19T03:51:06.233Z,99283.75
2022-10-19T03:52:10.205Z,99294.75
2022-10-19T03:53:11.945Z,99337.72
2022-10-19T03:54:15.722Z,99326.75
2022-10-19T03:55:18.089Z,99334.47
2022-10-19T03:56:22.873Z,99337.25
2022-10-19T03:57:24.581Z,99322.88
2022-10-19T03:58:26.241Z,99302.16
2022-10-19T03:59:27.993Z,99334.03
2022-10-19T04:00:29.675Z,99301.34
2022-10-19T04:01:31.425Z,99336.00
2022-10-19T04:02:33.267Z,99328.31
2022-10-19T04:04:37.504Z,99337.34
2022-10-19T04:05:39.146Z,99338.69
2022-10-19T04:06:43.630Z,99337.28
2022-10-19T04:07:45.278Z,99308.84
2022-10-19T04:08:49.072Z,99332.34
2022-10-19T04:09:50.732Z,99338.59
2022-10-19T04:10:52.758Z,99306.38
2022-10-19T04:11:54.428Z,99334.34
2022-10-19T04:12:56.064Z,99331.25
2022-10-19T04:13:58.704Z,99305.31
2022-10-19T04:15:00.425Z,99324.69
2022-10-19T04:16:02.291Z,99317.50
2022-10-19T04:17:04.842Z,99326.13
2022-10-19T04:18:06.568Z,99279.41
2022-10-19T04:19:09.200Z,99294.63
2022-10-19T04:20:11.279Z,99317.84
2022-10-19T04:21:40.578Z,99321.59
2022-10-19T04:22:42.218Z,99304.44
2022-10-19T04:23:43.851Z,99320.44
2022-10-19T04:24:45.588Z,99286.75
2022-10-19T04:25:47.226Z,99304.44
2022-10-19T04:26:51.360Z,99310.91
2022-10-19T04:27:53.009Z,99312.78
2022-10-19T04:28:58.688Z,99313.41
2022-10-19T04:30:00.465Z,99309.16
2022-10-19T04:31:03.930Z,99304.91
2022-10-19T04:32:05.823Z,99295.78
2022-10-19T04:33:07.526Z,99297.06
2022-10-19T04:34:09.320Z,99288.28
2022-10-19T04:35:10.936Z,99311.34
2022-10-19T04:36:13.013Z,99302.81
2022-10-19T04:37:14.686Z,99266.88
2022-10-19T04:38:16.358Z,99300.53
2022-10-19T04:39:18.001Z,99304.78
2022-10-19T04:40:19.649Z,99304.13
2022-10-19T04:41:22.330Z,99303.16
2022-10-19T04:42:23.966Z,99280.75
2022-10-19T04:43:25.596Z,99302.81
2022-10-19T04:44:27.259Z,99306.06
2022-10-19T04:45:28.991Z,99281.88
2022-10-19T04:46:30.939Z,99260.44
2022-10-19T04:47:32.884Z,99270.94
2022-10-19T04:48:36.412Z,99294.63
2022-10-19T04:49:38.049Z,99291.00
2022-10-19T04:50:39.820Z,99261.97
2022-10-19T04:51:41.449Z,99288.94
2022-10-19T04:52:45.342Z,99293.00
2022-10-19T04:53:47.696Z,99265.56
2022-10-19T04:54:49.358Z,99296.16
2022-10-19T04:55:51.139Z,99281.91
2022-10-19T04:56:54.032Z,99273.38
2022-10-19T04:57:55.752Z,99292.00
2022-10-19T04:58:58.910Z,99273.38
2022-10-19T05:00:00.553Z,99284.53
2022-10-19T05:01:20.462Z,99296.84
2022-10-19T05:02:22.115Z,99286.00
2022-10-19T05:03:23.852Z,99287.47
2022-10-19T05:04:25.484Z,99277.47
2022-10-19T05:05:27.176Z,99290.09
2022-10-19T05:06:30.757Z,99291.09
2022-10-19T05:07:32.723Z,99258.69
2022-10-19T05:08:35.379Z,99289.91
2022-10-19T05:09:40.431Z,99296.00
2022-10-19T05:10:44.289Z,99273.75
2022-10-19T05:11:50.832Z,99276.31
2022-10-19T05:12:52.711Z,99285.78
2022-10-19T05:13:55.902Z,99294.78
2022-10-19T05:14:57.546Z,99238.50
2022-10-19T05:16:01.544Z,99289.44
2022-10-19T05:17:03.234Z,99252.97
2022-10-19T05:18:04.942Z,99275.66
2022-10-19T05:19:06.606Z,99275.59
2022-10-19T05:20:08.865Z,99242.59
2022-10-19T05:21:13.125Z,99291.56
2022-10-19T05:22:14.823Z,99300.41
2022-10-19T05:23:16.701Z,99296.59
2022-10-19T05:24:18.384Z,99283.28
2022-10-19T05:25:20.118Z,99282.25
2022-10-19T05:26:24.406Z,99284.53
2022-10-19T05:27:26.140Z,99292.47
2022-10-19T05:28:28.250Z,99299.00
2022-10-19T05:29:30.306Z,99267.44
2022-10-19T05:30:32.649Z,99289.22
2022-10-19T05:31:34.948Z,99295.75
2022-10-19T05:32:36.585Z,99290.09
2022-10-19T05:33:39.123Z,99292.22
2022-10-19T05:34:40.772Z,99292.66
2022-10-19T05:35:42.436Z,99291.94
2022-10-19T05:36:44.107Z,99272.91
2022-10-19T05:37:45.770Z,99286.84
2022-10-19T05:38:49.618Z,99293.75
2022-10-19T05:39:51.572Z,99300.28
2022-10-19T05:40:53.638Z,99276.91
2022-10-19T05:41:55.529Z,99285.19
2022-10-19T05:42:57.186Z,99285.81
2022-10-19T05:44:00.699Z,99291.44
2022-10-19T05:45:02.416Z,99300.84
2022-10-19T05:46:06.288Z,99304.56
2022-10-19T05:47:07.992Z,99299.72
2022-10-19T05:48:09.650Z,99304.28
2022-10-19T05:49:12.838Z,99279.50
2022-10-19T05:50:14.516Z,99293.44
2022-10-19T05:51:19.805Z,99284.91
2022-10-19T05:52:21.542Z,99292.94
2022-10-19T05:53:23.182Z,99306.19
2022-10-19T05:54:27.740Z,99269.38
2022-10-19T05:55:34.770Z,99306.13
2022-10-19T05:56:36.587Z,99281.09
2022-10-19T05:57:38.269Z,99304.44
2022-10-19T05:58:40.025Z,99285.94
2022-10-19T05:59:42.251Z,99297.25
2022-10-19T06:00:43.913Z,99291.56
2022-10-19T06:01:46.152Z,99268.78
2022-10-19T06:02:47.832Z,99289.38
2022-10-19T06:03:54.646Z,99295.53
2022-10-19T06:04:56.288Z,99297.41
2022-10-19T06:05:58.470Z,99296.22
2022-10-19T06:07:01.307Z,99294.84
2022-10-19T06:08:03.100Z,99292.63
2022-10-19T06:09:04.847Z,99287.75
2022-10-19T06:10:06.899Z,99304.84
2022-10-19T06:11:11.964Z,99293.06
2022-10-19T06:12:15.818Z,99302.06
2022-10-19T06:13:19.974Z,99287.44
2022-10-19T06:14:21.666Z,99291.78
2022-10-19T06:15:23.358Z,99287.50
2022-10-19T06:16:27.000Z,99300.34
2022-10-19T06:17:29.499Z,99280.41
2022-10-19T06:18:31.207Z,99283.44
2022-10-19T06:19:32.845Z,99299.81
2022-10-19T06:20:36.066Z,99308.59
2022-10-19T06:21:39.608Z,99309.59
2022-10-19T06:22:43.653Z,99305.53
2022-10-19T06:23:45.545Z,99306.63
2022-10-19T06:24:47.207Z,99303.63
2022-10-19T06:25:48.890Z,99308.09
2022-10-19T06:26:50.559Z,99309.34
2022-10-19T06:27:53.207Z,99315.47
2022-10-19T06:28:59.323Z,99295.53
2022-10-19T06:30:00.964Z,99282.16
2022-10-19T06:31:05.875Z,99280.56
2022-10-19T06:32:08.934Z,99305.84
2022-10-19T06:33:10.625Z,99304.88
2022-10-19T06:34:12.403Z,99270.06
2022-10-19T06:35:14.263Z,99296.38
2022-10-19T06:36:24.334Z,99301.69
2022-10-19T06:37:25.996Z,99272.41
2022-10-19T06:38:27.736Z,99274.25
2022-10-19T06:39:29.414Z,99294.00
2022-10-19T06:40:31.439Z,99288.13
2022-10-19T06:41:34.647Z,99283.44
2022-10-19T06:42:39.337Z,99292.59
2022-10-19T06:43:43.147Z,99286.44
2022-10-19T06:44:44.940Z,99283.53
2022-10-19T06:45:46.620Z,99281.72
2022-10-19T06:46:48.430Z,99280.75
2022-10-19T06:47:50.147Z,99264.72
2022-10-19T06:48:51.766Z,99286.50
2022-10-19T06:49:53.405Z,99273.97
2022-10-19T06:51:06.266Z,99273.09
2022-10-19T06:52:08.367Z,99277.66
2022-10-19T06:53:10.131Z,99245.66
2022-10-19T06:54:11.879Z,99276.22
2022-10-19T06:55:13.783Z,99275.34
2022-10-19T06:56:15.766Z,99264.97
2022-10-19T06:57:17.444Z,99279.19
2022-10-19T06:58:19.112Z,99267.28
2022-10-19T06:59:20.811Z,99272.28
2022-10-19T07:00:22.483Z,99271.69
2022-10-19T07:01:24.719Z,99263.38
2022-10-19T07:02:26.488Z,99267.19
2022-10-19T07:03:29.938Z,99253.63
2022-10-19T07:04:31.565Z,99253.31
2022-10-19T07:05:33.194Z,99266.53
2022-10-19T07:06:34.907Z,99248.91
2022-10-19T07:07:37.204Z,99254.97
2022-10-19T07:08:41.058Z,99265.25
2022-10-19T07:09:42.727Z,99274.13
2022-10-19T07:10:44.384Z,99268.81
2022-10-19T07:11:46.369Z,99267.19
2022-10-19T07:12:48.067Z,99272.00
2022-10-19T07:13:50.590Z,99276.06
2022-10-19T07:14:52.558Z,99270.09
2022-10-19T07:16:15.956Z,99271.13
2022-10-19T07:17:21.709Z,99260.63
2022-10-19T07:18:23.359Z,99262.50
2022-10-19T07:19:28.987Z,99263.75
2022-10-19T07:20:30.675Z,99244.53
2022-10-19T07:21:32.405Z,99240.63
2022-10-19T07:22:34.093Z,99257.78
2022-10-19T07:23:37.667Z,99250.13
2022-10-19T07:24:39.345Z,99239.81
2022-10-19T07:25:41.026Z,99252.03
2022-10-19T07:26:42.730Z,99254.75
2022-10-19T07:27:44.505Z,99247.75
2022-10-19T07:28:47.928Z,99248.34
2022-10-19T07:29:49.687Z,99244.03
2022-10-19T07:30:51.393Z,99242.50
2022-10-19T07:31:53.495Z,99231.56
2022-10-19T07:32:55.137Z,99235.34
2022-10-19T07:34:01.711Z,99244.91
2022-10-19T07:35:03.577Z,99193.88
2022-10-19T07:36:08.284Z,99242.38
2022-10-19T07:37:10.046Z,99249.72
2022-10-19T07:38:11.680Z,99238.81
2022-10-19T07:39:13.931Z,99230.34
2022-10-19T07:40:15.576Z,99224.09
2022-10-19T07:41:19.585Z,99233.56
2022-10-19T07:43:23.812Z,99238.09
2022-10-19T07:44:25.486Z,99230.13
2022-10-19T07:45:27.238Z,99235.84
2022-10-19T07:46:33.542Z,99231.22
2022-10-19T07:47:35.470Z,99231.63
2022-10-19T07:48:37.485Z,99229.06
2022-10-19T07:49:40.015Z,99232.66
2022-10-19T07:50:41.681Z,99227.19
2022-10-19T07:51:43.550Z,99210.81
2022-10-19T07:52:45.218Z,99212.59
2022-10-19T07:53:47.146Z,99207.22
2022-10-19T07:54:49.707Z,99197.59
2022-10-19T07:55:51.396Z,99227.53
2022-10-19T07:56:53.140Z,99201.78
2022-10-19T07:57:55.347Z,99217.81
2022-10-19T07:58:59.348Z,99217.66
2022-10-19T08:00:00.995Z,99222.03
2022-10-19T08:01:05.264Z,99213.84
2022-10-19T08:02:16.002Z,99199.19
2022-10-19T08:06:08.192Z,99209.81
2022-10-19T08:07:10.909Z,99203.91
2022-10-19T08:08:12.565Z,99206.19
2022-10-19T08:09:27.997Z,99200.72
2022-10-19T08:10:36.846Z,99184.69
2022-10-19T08:11:38.661Z,99207.47
2022-10-19T08:12:40.396Z,99206.41
2022-10-19T08:13:42.931Z,99192.69
2022-10-19T08:14:44.577Z,99186.38
2022-10-19T08:15:46.243Z,99199.34
2022-10-19T08:16:47.961Z,99199.75
2022-10-19T08:17:49.653Z,99202.19
2022-10-19T08:18:52.883Z,99191.69
2022-10-19T08:19:54.531Z,99201.38
2022-10-19T08:20:56.487Z,99194.28
2022-10-19T08:21:58.142Z,99174.81
2022-10-19T08:23:00.377Z,99192.88
2022-10-19T08:24:02.148Z,99191.28
2022-10-19T08:25:04.095Z,99180.84
2022-10-19T08:26:06.015Z,99154.81
2022-10-19T08:27:07.718Z,99182.00
2022-10-19T08:28:09.418Z,99176.88
2022-10-19T08:29:13.997Z,99117.50
2022-10-19T08:30:15.689Z,99162.47
2022-10-19T08:31:22.933Z,99179.94
2022-10-19T08:32:24.650Z,99177.69
2022-10-19T08:33:26.674Z,99170.31
2022-10-19T08:34:28.402Z,99179.13
2022-10-19T08:35:31.588Z,99176.63
2022-10-19T08:36:35.700Z,99171.38
2022-10-19T08:37:45.322Z,99175.63
2022-10-19T08:38:48.829Z,99173.47
2022-10-19T08:39:50.490Z,99166.00
2022-10-19T08:40:52.258Z,99164.59
2022-10-19T08:41:53.869Z,99172.00
2022-10-19T08:43:05.104Z,99155.97
2022-10-19T08:44:28.372Z,99170.19
2022-10-19T08:45:56.670Z,99155.44
2022-10-19T08:47:19.753Z,99166.50
2022-10-19T08:48:24.107Z,99166.94
2022-10-19T08:49:28.759Z,99154.78
2022-10-19T08:50:38.660Z,99148.22
2022-10-19T08:51:42.286Z,99144.81
2022-10-19T08:52:50.403Z,99154.72
2022-10-19T08:53:56.189Z,99150.06
2022-10-19T08:55:01.286Z,99139.97
2022-10-19T08:56:04.430Z,99159.25
2022-10-19T08:57:20.654Z,99154.28
2022-10-19T08:58:34.363Z,99158.50
2022-10-19T08:59:57.720Z,99158.03
2022-10-19T09:01:37.844Z,99156.19
2022-10-19T09:02:57.632Z,99154.81
2022-10-19T09:04:17.327Z,99148.41
2022-10-19T09:05:29.360Z,99152.41
2022-10-19T09:06:38.771Z,99154.19
2022-10-19T09:07:45.723Z,99142.84
2022-10-19T09:08:48.227Z,99139.50
2022-10-19T09:10:03.447Z,99133.59
2022-10-19T09:11:08.916Z,99123.38
2022-10-19T09:12:16.691Z,99146.53
2022-10-19T09:14:04.145Z,99146.88
2022-10-19T09:15:11.421Z,99142.84
2022-10-19T09:16:19.024Z,99142.53
2022-10-19T09:17:20.876Z,99145.84
2022-10-19T09:18:28.876Z,99142.66
2022-10-19T09:19:32.112Z,99137.84
2022-10-19T09:20:39.486Z,99142.16
2022-10-19T09:21:48.342Z,99137.78
2022-10-19T09:23:04.483Z,99114.91
2022-10-19T09:24:16.255Z,99137.72
2022-10-19T09:25:20.954Z,99125.19
2022-10-19T09:26:47.691Z,99107.78
2022-10-19T09:29:35.362Z,99112.31
2022-10-19T09:30:39.009Z,99120.31
2022-10-19T09:31:45.411Z,99112.41
2022-10-19T09:32:58.869Z,99107.09
2022-10-19T09:34:05.625Z,99097.75
2022-10-19T09:35:43.137Z,99114.44
2022-10-19T09:36:51.795Z,99124.19
2022-10-19T09:37:53.814Z,99127.81
2022-10-19T09:38:55.469Z,99109.69
2022-10-19T09:39:57.296Z,99114.81
2022-10-19T09:41:07.865Z,99114.53
2022-10-19T09:42:23.817Z,99119.56
2022-10-19T09:43:28.179Z,99106.66
2022-10-19T09:44:31.052Z,99113.91
2022-10-19T09:45:43.305Z,99114.06
2022-10-19T09:46:53.737Z,99049.84
2022-10-19T09:47:55.385Z,99111.53
2022-10-19T09:49:01.377Z,99113.47
2022-10-19T09:50:09.126Z,99110.28
2022-10-19T09:51:13.332Z,99100.97
2022-10-19T09:52:40.056Z,99104.72
2022-10-19T09:53:45.902Z,99098.16
2022-10-19T09:54:59.029Z,99093.66
2022-10-19T09:56:04.516Z,99090.91
2022-10-19T09:57:06.246Z,99082.72
2022-10-19T09:58:13.467Z,99092.06
2022-10-19T09:59:23.436Z,99096.00
2022-10-19T10:00:32.812Z,99088.03
2022-10-19T10:01:43.014Z,99085.69
2022-10-19T10:02:56.376Z,99079.28
2022-10-19T10:04:30.674Z,99087.25
2022-10-19T10:05:41.551Z,99081.69
2022-10-19T10:06:43.723Z,99079.53
2022-10-19T10:07:45.544Z,99064.75
2022-10-19T10:08:50.685Z,99072.13
2022-10-19T10:09:53.291Z,99069.84
2022-10-19T10:11:07.198Z,99070.59
2022-10-19T10:12:09.157Z,99061.06
2022-10-19T10:13:20.265Z,99073.00
2022-10-19T10:14:33.581Z,99065.56
2022-10-19T10:15:44.519Z,99059.97
2022-10-19T10:16:46.779Z,99076.47
2022-10-19T10:17:49.894Z,99073.44
2022-10-19T10:19:03.996Z,99062.63
2022-10-19T10:20:26.925Z,99058.56
2022-10-19T10:21:35.862Z,99053.44
2022-10-19T10:22:37.868Z,99059.03
2022-10-19T10:23:39.717Z,99041.72
2022-10-19T10:24:52.405Z,99054.75
2022-10-19T10:25:58.632Z,99056.97
2022-10-19T10:27:03.406Z,99025.34
2022-10-19T10:28:25.861Z,99050.91
2022-10-19T10:29:30.014Z,99045.56
2022-10-19T10:30:37.029Z,99051.88
2022-10-19T10:31:38.753Z,99043.25
2022-10-19T10:32:49.358Z,99038.75
2022-10-19T10:34:12.308Z,99029.84
2022-10-19T10:35:36.661Z,99034.19
2022-10-19T10:36:38.413Z,99036.13
2022-10-19T10:37:41.266Z,99013.00
2022-10-19T10:38:50.208Z,99011.69
2022-10-19T10:39:56.734Z,99022.09
2022-10-19T10:41:07.947Z,99034.00
2022-10-19T10:42:21.412Z,99019.56
2022-10-19T10:43:31.279Z,99031.19
2022-10-19T10:44:36.655Z,99025.50
2022-10-19T10:45:41.471Z,99008.31
2022-10-19T10:46:55.450Z,99024.81
2022-10-19T10:47:58.201Z,99009.84
2022-10-19T10:49:08.492Z,99005.72
2022-10-19T10:50:20.478Z,99015.34
2022-10-19T10:51:37.376Z,99017.38
2022-10-19T10:53:04.823Z,99011.69
2022-10-19T10:54:38.840Z,99013.34
2022-10-19T10:55:40.514Z,99009.72
2022-10-19T10:56:44.085Z,99006.06
2022-10-19T10:57:51.355Z,99005.09
2022-10-19T10:59:01.954Z,99002.09
2022-10-19T11:00:11.177Z,98996.63
2022-10-19T11:01:21.462Z,98997.53
2022-10-19T11:02:48.898Z,98996.19
2022-10-19T11:04:00.679Z,98998.47
2022-10-19T11:05:33.616Z,98988.81
2022-10-19T11:06:43.688Z,98988.97
2022-10-19T11:07:49.988Z,98980.00
2022-10-19T11:09:08.027Z,98988.75
2022-10-19T11:10:26.734Z,98983.31
2022-10-19T11:11:36.120Z,98984.22
2022-10-19T11:12:41.952Z,98958.28
2022-10-19T11:14:06.928Z,98979.06
2022-10-19T11:16:35.583Z,98976.44
2022-10-19T11:17:42.745Z,98970.41
2022-10-19T11:18:53.764Z,98978.34
2022-10-19T11:19:55.466Z,98983.00
2022-10-19T11:21:13.409Z,98976.31
2022-10-19T11:22:47.035Z,98968.63
2022-10-19T11:24:18.809Z,98975.81
2022-10-19T11:25:44.196Z,98962.44
2022-10-19T11:26:45.815Z,98963.88
2022-10-19T11:27:53.244Z,98963.16
2022-10-19T11:28:57.568Z,98966.97
2022-10-19T11:30:17.129Z,98961.47
2022-10-19T11:31:47.454Z,98963.09
2022-10-19T11:33:07.678Z,98953.22
2022-10-19T11:34:32.594Z,98951.16
2022-10-19T11:35:46.365Z,98949.09
2022-10-19T11:36:48.093Z,98940.00
2022-10-19T11:38:20.229Z,98947.81
2022-10-19T11:39:35.461Z,98939.03
2022-10-19T11:41:16.388Z,98939.84
2022-10-19T11:42:34.729Z,98935.50
2022-10-19T11:43:54.611Z,98945.22
2022-10-19T11:45:27.689Z,98942.75
2022-10-19T11:46:54.152Z,98937.41
2022-10-19T11:48:20.188Z,98935.25
2022-10-19T11:49:40.220Z,98940.91
2022-10-19T11:50:54.184Z,98944.47
2022-10-19T11:52:07.289Z,98915.47
2022-10-19T11:53:23.641Z,98931.66
2022-10-19T11:54:43.634Z,98934.91
2022-10-19T11:55:57.218Z,98906.00
2022-10-19T11:57:08.281Z,98932.00
2022-10-19T11:58:47.183Z,98928.75
2022-10-19T12:00:15.418Z,98926.41
2022-10-19T12:01:48.070Z,98922.97
2022-10-19T12:03:33.635Z,98916.38
2022-10-19T12:04:44.303Z,98924.69
2022-10-19T12:06:04.852Z,98921.59
2022-10-19T12:07:24.792Z,98922.41
2022-10-19T12:08:51.255Z,98918.44
2022-10-19T12:09:55.526Z,98920.97
2022-10-19T12:11:13.760Z,98896.69
2022-10-19T12:12:33.486Z,98895.28
2022-10-19T12:13:49.293Z,98906.63
2022-10-19T12:15:01.509Z,98909.69
2022-10-19T12:16:05.004Z,98881.22
2022-10-19T12:17:16.004Z,98909.50
2022-10-19T12:18:36.213Z,98909.00
2022-10-19T12:20:03.025Z,98911.97
2022-10-19T12:21:29.470Z,98913.16
2022-10-19T12:22:33.328Z,98900.34
2022-10-19T12:23:40.168Z,98906.53
2022-10-19T12:24:41.986Z,98874.28
2022-10-19T12:25:45.108Z,98900.28
2022-10-19T12:26:47.775Z,98895.69
2022-10-19T12:27:51.697Z,98890.16
2022-10-19T12:29:03.721Z,98898.47
2022-10-19T12:30:13.098Z,98896.59
2022-10-19T12:31:15.518Z,98900.81
2022-10-19T12:32:23.162Z,98892.72
2022-10-19T12:33:36.998Z,98894.03
2022-10-19T12:35:03.305Z,98889.81
2022-10-19T12:36:35.788Z,98891.13
2022-10-19T12:38:00.459Z,98880.34
2022-10-19T12:39:50.041Z,98879.97
2022-10-19T12:41:01.958Z,98862.91
2022-10-19T12:42:15.249Z,98872.16
2022-10-19T12:43:24.456Z,98875.91
2022-10-19T12:44:38.196Z,98874.22
2022-10-19T12:46:00.437Z,98876.41
2022-10-19T12:47:22.554Z,98866.03
2022-10-19T12:48:24.818Z,98872.50
2022-10-19T12:49:26.455Z,98870.41
2022-10-19T12:50:49.681Z,98876.31
2022-10-19T12:51:52.182Z,98875.94
2022-10-19T12:52:54.820Z,98870.13
2022-10-19T12:54:09.610Z,98870.13
2022-10-19T12:55:16.993Z,98869.66
2022-10-19T12:56:26.191Z,98861.16
2022-10-19T12:57:30.524Z,98861.59
2022-10-19T12:58:47.529Z,98869.59
2022-10-19T13:00:05.722Z,98849.56
2022-10-19T13:01:09.938Z,98857.81
2022-10-19T13:02:28.847Z,98862.59
2022-10-19T13:03:36.972Z,98862.38
2022-10-19T13:04:38.663Z,98837.78
2022-10-19T13:05:40.518Z,98848.97
2022-10-19T13:06:51.605Z,98864.94
2022-10-19T13:07:53.258Z,98858.53
2022-10-19T13:08:58.439Z,98855.81
2022-10-19T13:10:02.968Z,98861.44
2022-10-19T13:11:14.725Z,98828.00
2022-10-19T13:12:19.998Z,98855.53